Estación de Polizones INIA

Ultimos registro cada 15 minutos 77
Estación Fecha / Hora Temperatura Humedad Lluvia Velocidad Dirección Radiación Presion
77 Polizones INIA 10-05-2026 19:00 10,6 86 0 0 0 0 1006
76 Polizones INIA 10-05-2026 18:45 10,9 85,1 0 0 0 0 1005
75 Polizones INIA 10-05-2026 18:30 11,6 82,7 0 0 0 0 1005
74 Polizones INIA 10-05-2026 18:15 12 81,2 0 0 0 1 1005
73 Polizones INIA 10-05-2026 18:00 12,7 78,8 0 0 0 4 1005
72 Polizones INIA 10-05-2026 17:45 13,2 76,7 0 0 0 9 1005
71 Polizones INIA 10-05-2026 17:30 13,6 75,8 0 0,1 150 19 1005
70 Polizones INIA 10-05-2026 17:15 14 75,2 0 0,9 160 46 1006
69 Polizones INIA 10-05-2026 17:00 14,4 71 0 1 175 109 1006
68 Polizones INIA 10-05-2026 16:45 14,5 72,5 0 1,1 160 132 1006
67 Polizones INIA 10-05-2026 16:30 14,5 70,4 0 1,5 157 152 1006
66 Polizones INIA 10-05-2026 16:15 14,9 70,3 0 1,6 147 164 1006
65 Polizones INIA 10-05-2026 16:00 15,3 67,7 0 1,6 146 240 1006
64 Polizones INIA 10-05-2026 15:45 15,4 67,9 0 1,4 147 258 1006
63 Polizones INIA 10-05-2026 15:30 15,4 67,3 0 1,6 137 296 1006
62 Polizones INIA 10-05-2026 15:15 15,3 67,5 0 1,8 154 324 1006
61 Polizones INIA 10-05-2026 15:00 15,3 65,7 0 1,8 146 353 1006
60 Polizones INIA 10-05-2026 14:45 15,1 64,8 0 1,7 146 378 1006
59 Polizones INIA 10-05-2026 14:30 15 65,1 0 1,8 148 397 1007
58 Polizones INIA 10-05-2026 14:15 14,8 63,8 0 1,6 168 415 1007
57 Polizones INIA 10-05-2026 14:00 14,6 69,3 0 1,5 173 429 1007
56 Polizones INIA 10-05-2026 13:45 14,3 69,3 0 1,3 178 442 1007
55 Polizones INIA 10-05-2026 13:30 13,9 64,9 0 1,4 170 452 1007
54 Polizones INIA 10-05-2026 13:15 13,6 62,2 0 1,2 152 459 1008
53 Polizones INIA 10-05-2026 13:00 13,3 66,7 0 1,2 175 459 1007
52 Polizones INIA 10-05-2026 12:45 13 64,3 0 1,1 154 447 1008
51 Polizones INIA 10-05-2026 12:30 12,5 64,4 0 1,4 168 460 1008
50 Polizones INIA 10-05-2026 12:15 12,3 68,7 0 1,3 186 451 1008
49 Polizones INIA 10-05-2026 12:00 11,9 66,1 0 1 152 441 1008
48 Polizones INIA 10-05-2026 11:45 11,5 68,4 0 0,8 160 428 1008
47 Polizones INIA 10-05-2026 11:30 11,3 69,9 0 0,5 132 412 1008
46 Polizones INIA 10-05-2026 11:15 11,1 72,2 0 0,8 147 394 1008
45 Polizones INIA 10-05-2026 11:00 10,6 73,9 0 1,1 148 372 1008
44 Polizones INIA 10-05-2026 10:45 10,4 72,2 0 1,2 159 349 1009
43 Polizones INIA 10-05-2026 10:30 10,1 75,4 0 0,2 150 321 1009
42 Polizones INIA 10-05-2026 10:15 9,8 74 0 0 168 295 1009
41 Polizones INIA 10-05-2026 10:00 9 72,3 0 0 0 266 1009
40 Polizones INIA 10-05-2026 09:45 7,9 77,9 0 0 0 233 1009
39 Polizones INIA 10-05-2026 09:30 7 82,9 0 0 0 202 1009
38 Polizones INIA 10-05-2026 09:15 5,8 87,9 0 0 0 154 1009
37 Polizones INIA 10-05-2026 09:00 4,7 91,5 0 0 0 65 1009
36 Polizones INIA 10-05-2026 08:45 4,2 92,2 0 0 0 37 1008
35 Polizones INIA 10-05-2026 08:30 3,9 92,9 0 0 0 19 1008
34 Polizones INIA 10-05-2026 08:15 3,9 93 0 0 0 11 1008
33 Polizones INIA 10-05-2026 08:00 3,7 94 0 0 0 4 1008
32 Polizones INIA 10-05-2026 07:45 3 96,3 0 0 0 2 1008
31 Polizones INIA 10-05-2026 07:30 2,9 95,3 0 0 0 0 1008
30 Polizones INIA 10-05-2026 07:15 3,1 94,5 0 0 0 0 1008
29 Polizones INIA 10-05-2026 07:00 3,1 94,1 0 0 56 0 1008
28 Polizones INIA 10-05-2026 06:45 3,3 94,3 0 0 0 0 1009
27 Polizones INIA 10-05-2026 06:30 3,2 94,6 0 0 0 0 1008
26 Polizones INIA 10-05-2026 06:15 3,4 93,8 0 0 0 0 1008
25 Polizones INIA 10-05-2026 06:00 3,7 93,3 0 0 0 0 1009
24 Polizones INIA 10-05-2026 05:45 3,9 93,8 0 0 110 0 1009
23 Polizones INIA 10-05-2026 05:30 3,9 94,1 0 0 103 0 1008
22 Polizones INIA 10-05-2026 05:15 4 95,1 0 0 133 0 1009
21 Polizones INIA 10-05-2026 05:00 3,8 96,2 0 0 0 0 1008
20 Polizones INIA 10-05-2026 04:45 3,2 97,1 0 0 0 0 1008
19 Polizones INIA 10-05-2026 04:30 3,2 96,7 0 0 0 0 1008
18 Polizones INIA 10-05-2026 04:15 3 96,5 0 0 0 0 1008
17 Polizones INIA 10-05-2026 04:00 3,1 96,2 0 0 0 0 1008
16 Polizones INIA 10-05-2026 03:45 3,1 96,5 0 0 0 0 1008
15 Polizones INIA 10-05-2026 03:30 3,7 95,6 0 0,1 68 0 1009
14 Polizones INIA 10-05-2026 03:15 3,6 96,6 0 0 0 0 1009
13 Polizones INIA 10-05-2026 03:00 3,2 97,2 0 0 0 0 1009
12 Polizones INIA 10-05-2026 02:45 3 96,6 0 0 0 0 1009
11 Polizones INIA 10-05-2026 02:30 3 96,6 0 0 0 0 1009
10 Polizones INIA 10-05-2026 02:15 3 96,5 0 0 0 0 1009
9 Polizones INIA 10-05-2026 02:00 3 96,3 0 0 0 0 1009
8 Polizones INIA 10-05-2026 01:45 3,4 95,9 0 0 0 0 1009
7 Polizones INIA 10-05-2026 01:30 3,2 96,2 0 0 0 0 1009
6 Polizones INIA 10-05-2026 01:15 3,5 95,8 0 0 0 0 1009
5 Polizones INIA 10-05-2026 01:00 3,7 95,6 0 0 0 0 1009
4 Polizones INIA 10-05-2026 00:45 3,8 95,1 0 0 0 0 1009
3 Polizones INIA 10-05-2026 00:30 4 95,3 0 0 0 0 1009
2 Polizones INIA 10-05-2026 00:15 4,1 94,7 0 0 0 0 1010
1 Polizones INIA 10-05-2026 00:00 4,6 94,1 0 0 0 0 1010